Dallas Love Field
KDAL : now visible

Airfield :











YOU CAN JOIN US ON...

 
LOGIN :

Register | Disclaimer

   EN    FR    IT 

 









Legend :    VFR   Marginal VFR   IFR   Intensive IFR   Very Intensive IFR
Visi :
Ceiling :
>= 8 km
>= 3000ft
5 to 8 km
1000 to 3000 ft
1500m to 5 km
500 to 1000 ft
800 to 1500m
200 to 500 ft
< 800m
< 200 ft
Symbols :   Thunderstorms  Fog  Heavy snow  Heavy precipitations  Wind > 20 kt






- Airport Elevation : 487 ft
- IATA code : DAL


KDAL - Dallas Love Field

CURRENT METAR :
  • 151553Z 18009KT 8SM SCT008 16/12 A2977 RMK AO2 SLP078 T01560122 $

EXPIRED METARs :
  • 151549Z 17008KT 8SM SCT008 16/12 A2977 RMK AO2 $
  • 151453Z 17008KT 4SM BR OVC007 14/12 A2974 RMK AO2 SLP070 60000 T01390122 53007 $
  • 151405Z 17007KT 3SM BR OVC005 13/12 A2973 RMK AO2 T01330122 $
  • 151340Z 16010KT 2SM BR OVC004 13/12 A2973 RMK AO2 DZE40 P0000 T01280117 $

TAF KDAL
Valid from the 15 at 15:00 until the 16 at 12:00 UTC


151504Z 1515/1612 17009KT 4SM BR SCT003 OVC007
FM151700 24008KT P6SM FEW250
FM152200 35011KT P6SM SCT250
FM160700 36011KT P6SM BKN012



MET'MAP, your aeronautical weather chart ! - Copyright ORBIFLY December 2007 - Disclaimer

ORBIFLY MET'MAP TEAM :

Programming & Development : Alexandra Zaïnal
Concept & original design : Baudouin d'Aumeries
Assistance for programming : Marc-Olivier Méhu
Technical & hardware support : Manuel Goepfert

Contact : metmap@orbifly.com




SOURCES & CREDITS :

   NOAA       Earth
Advisory